sensor_id;sensor_type;location;lat;lon;timestamp;temperature;humidity
12922;DHT22;6528;48.086;16.282;2022-07-29T00:02:15;20.70;1.00
12922;DHT22;6528;48.086;16.282;2022-07-29T00:04:42;20.60;1.00
12922;DHT22;6528;48.086;16.282;2022-07-29T00:07:09;20.60;1.00
12922;DHT22;6528;48.086;16.282;2022-07-29T00:09:37;20.60;1.00
12922;DHT22;6528;48.086;16.282;2022-07-29T00:12:18;20.60;1.00
12922;DHT22;6528;48.086;16.282;2022-07-29T00:14:55;20.50;40.50
12922;DHT22;6528;48.086;16.282;2022-07-29T00:17:23;20.60;99.90
12922;DHT22;6528;48.086;16.282;2022-07-29T00:19:50;20.60;99.90
12922;DHT22;6528;48.086;16.282;2022-07-29T00:22:17;20.50;99.90
12922;DHT22;6528;48.086;16.282;2022-07-29T00:24:44;20.50;99.90
12922;DHT22;6528;48.086;16.282;2022-07-29T00:27:10;20.50;99.90
12922;DHT22;6528;48.086;16.282;2022-07-29T00:29:37;20.50;99.90
12922;DHT22;6528;48.086;16.282;2022-07-29T00:32:04;20.50;99.90
12922;DHT22;6528;48.086;16.282;2022-07-29T00:34:45;20.40;99.90
12922;DHT22;6528;48.086;16.282;2022-07-29T00:37:31;20.40;99.90
12922;DHT22;6528;48.086;16.282;2022-07-29T00:39:58;20.40;99.90
12922;DHT22;6528;48.086;16.282;2022-07-29T00:42:25;20.30;99.90
12922;DHT22;6528;48.086;16.282;2022-07-29T00:44:51;20.40;1.00
12922;DHT22;6528;48.086;16.282;2022-07-29T00:47:18;20.30;1.00
12922;DHT22;6528;48.086;16.282;2022-07-29T00:49:45;20.30;1.00
12922;DHT22;6528;48.086;16.282;2022-07-29T00:52:12;20.20;1.00
12922;DHT22;6528;48.086;16.282;2022-07-29T00:54:42;20.20;1.00
12922;DHT22;6528;48.086;16.282;2022-07-29T00:57:11;20.20;1.00
12922;DHT22;6528;48.086;16.282;2022-07-29T00:59:38;20.20;1.00
12922;DHT22;6528;48.086;16.282;2022-07-29T01:02:05;20.20;1.00
12922;DHT22;6528;48.086;16.282;2022-07-29T01:04:33;20.20;1.00
12922;DHT22;6528;48.086;16.282;2022-07-29T01:07:01;20.10;1.00
12922;DHT22;6528;48.086;16.282;2022-07-29T01:09:31;20.10;1.00
12922;DHT22;6528;48.086;16.282;2022-07-29T01:12:17;20.10;1.00
12922;DHT22;6528;48.086;16.282;2022-07-29T01:14:46;20.10;1.00
12922;DHT22;6528;48.086;16.282;2022-07-29T01:17:39;20.00;1.00
12922;DHT22;6528;48.086;16.282;2022-07-29T01:28:39;20.00;1.00
12922;DHT22;6528;48.086;16.282;2022-07-29T01:31:09;19.90;1.00
12922;DHT22;6528;48.086;16.282;2022-07-29T01:33:45;19.90;1.00
12922;DHT22;6528;48.086;16.282;2022-07-29T01:37:05;19.90;1.00
12922;DHT22;6528;48.086;16.282;2022-07-29T01:39:10;19.90;1.00
12922;DHT22;6528;48.086;16.282;2022-07-29T01:41:42;19.80;1.00
12922;DHT22;6528;48.086;16.282;2022-07-29T01:44:18;19.80;1.00
12922;DHT22;6528;48.086;16.282;2022-07-29T01:46:52;19.70;1.00
12922;DHT22;6528;48.086;16.282;2022-07-29T01:49:27;19.70;1.00
12922;DHT22;6528;48.086;16.282;2022-07-29T01:52:07;19.80;1.00
12922;DHT22;6528;48.086;16.282;2022-07-29T01:54:39;19.80;1.00
12922;DHT22;6528;48.086;16.282;2022-07-29T01:57:15;19.70;1.00
12922;DHT22;6528;48.086;16.282;2022-07-29T01:59:46;19.70;1.00
12922;DHT22;6528;48.086;16.282;2022-07-29T02:02:15;19.60;1.00
12922;DHT22;6528;48.086;16.282;2022-07-29T02:04:44;19.70;1.00
12922;DHT22;6528;48.086;16.282;2022-07-29T02:07:18;19.60;1.00
12922;DHT22;6528;48.086;16.282;2022-07-29T02:09:47;19.60;1.00
12922;DHT22;6528;48.086;16.282;2022-07-29T02:12:18;19.60;1.00
12922;DHT22;6528;48.086;16.282;2022-07-29T02:14:49;19.60;1.00
12922;DHT22;6528;48.086;16.282;2022-07-29T02:17:22;19.50;1.00
12922;DHT22;6528;48.086;16.282;2022-07-29T02:19:50;19.50;1.00
12922;DHT22;6528;48.086;16.282;2022-07-29T02:22:19;19.50;1.00
12922;DHT22;6528;48.086;16.282;2022-07-29T02:24:47;19.50;1.00
12922;DHT22;6528;48.086;16.282;2022-07-29T02:27:15;19.50;1.00
12922;DHT22;6528;48.086;16.282;2022-07-29T02:29:46;19.40;1.00
12922;DHT22;6528;48.086;16.282;2022-07-29T02:32:16;19.40;1.00
12922;DHT22;6528;48.086;16.282;2022-07-29T02:34:44;19.40;1.00
12922;DHT22;6528;48.086;16.282;2022-07-29T02:37:12;19.40;1.00
12922;DHT22;6528;48.086;16.282;2022-07-29T02:39:42;19.30;1.00
12922;DHT22;6528;48.086;16.282;2022-07-29T02:42:12;19.30;1.00
12922;DHT22;6528;48.086;16.282;2022-07-29T02:44:40;19.30;1.00
12922;DHT22;6528;48.086;16.282;2022-07-29T02:47:16;19.30;1.00
12922;DHT22;6528;48.086;16.282;2022-07-29T02:54:56;19.20;1.00
12922;DHT22;6528;48.086;16.282;2022-07-29T02:59:58;19.20;1.00
12922;DHT22;6528;48.086;16.282;2022-07-29T03:02:33;19.20;1.00
12922;DHT22;6528;48.086;16.282;2022-07-29T03:05:02;19.10;1.00
12922;DHT22;6528;48.086;16.282;2022-07-29T03:07:30;19.10;1.00
12922;DHT22;6528;48.086;16.282;2022-07-29T03:09:58;19.10;99.90
12922;DHT22;6528;48.086;16.282;2022-07-29T03:12:25;19.10;91.30
12922;DHT22;6528;48.086;16.282;2022-07-29T03:14:53;19.10;93.80
12922;DHT22;6528;48.086;16.282;2022-07-29T03:17:20;19.10;92.30
12922;DHT22;6528;48.086;16.282;2022-07-29T03:19:48;19.10;84.30
12922;DHT22;6528;48.086;16.282;2022-07-29T03:22:15;19.00;82.80
12922;DHT22;6528;48.086;16.282;2022-07-29T03:24:44;19.10;67.40
12922;DHT22;6528;48.086;16.282;2022-07-29T03:27:12;19.10;38.40
12922;DHT22;6528;48.086;16.282;2022-07-29T03:29:39;19.00;24.60
12922;DHT22;6528;48.086;16.282;2022-07-29T03:32:11;19.10;21.00
12922;DHT22;6528;48.086;16.282;2022-07-29T03:34:39;19.10;23.40
12922;DHT22;6528;48.086;16.282;2022-07-29T03:37:06;19.00;21.80
12922;DHT22;6528;48.086;16.282;2022-07-29T03:39:38;19.00;23.20
12922;DHT22;6528;48.086;16.282;2022-07-29T03:42:07;19.00;32.70
12922;DHT22;6528;48.086;16.282;2022-07-29T03:44:34;18.90;47.40
12922;DHT22;6528;48.086;16.282;2022-07-29T03:47:04;18.90;50.80
12922;DHT22;6528;48.086;16.282;2022-07-29T03:49:35;18.90;86.20
12922;DHT22;6528;48.086;16.282;2022-07-29T03:52:03;18.80;99.90
12922;DHT22;6528;48.086;16.282;2022-07-29T03:54:30;18.90;99.90
12922;DHT22;6528;48.086;16.282;2022-07-29T03:56:59;18.90;99.90
12922;DHT22;6528;48.086;16.282;2022-07-29T03:59:27;18.90;99.10
12922;DHT22;6528;48.086;16.282;2022-07-29T04:01:55;18.90;85.70
12922;DHT22;6528;48.086;16.282;2022-07-29T04:04:22;18.90;95.50
12922;DHT22;6528;48.086;16.282;2022-07-29T04:06:49;18.90;83.10
12922;DHT22;6528;48.086;16.282;2022-07-29T04:09:16;18.90;72.10
12922;DHT22;6528;48.086;16.282;2022-07-29T04:11:42;18.90;80.00
12922;DHT22;6528;48.086;16.282;2022-07-29T04:14:30;18.90;52.40
12922;DHT22;6528;48.086;16.282;2022-07-29T04:16:57;18.90;56.30
12922;DHT22;6528;48.086;16.282;2022-07-29T04:19:24;19.00;63.90
12922;DHT22;6528;48.086;16.282;2022-07-29T04:21:50;19.00;73.00
12922;DHT22;6528;48.086;16.282;2022-07-29T04:24:18;19.00;40.80
12922;DHT22;6528;48.086;16.282;2022-07-29T04:26:46;19.00;43.70
12922;DHT22;6528;48.086;16.282;2022-07-29T04:29:13;19.10;46.30
12922;DHT22;6528;48.086;16.282;2022-07-29T04:31:41;19.10;48.30
12922;DHT22;6528;48.086;16.282;2022-07-29T04:34:08;19.20;62.70
12922;DHT22;6528;48.086;16.282;2022-07-29T04:36:35;19.20;57.20
12922;DHT22;6528;48.086;16.282;2022-07-29T04:39:03;19.20;99.90
12922;DHT22;6528;48.086;16.282;2022-07-29T04:41:30;19.30;52.50
12922;DHT22;6528;48.086;16.282;2022-07-29T04:43:59;19.40;49.00
12922;DHT22;6528;48.086;16.282;2022-07-29T04:46:33;19.40;99.90
12922;DHT22;6528;48.086;16.282;2022-07-29T04:49:01;19.50;99.90
12922;DHT22;6528;48.086;16.282;2022-07-29T04:51:28;19.50;99.90
12922;DHT22;6528;48.086;16.282;2022-07-29T04:53:54;19.60;99.90
12922;DHT22;6528;48.086;16.282;2022-07-29T04:56:21;19.60;99.90
12922;DHT22;6528;48.086;16.282;2022-07-29T04:58:48;19.70;99.90
12922;DHT22;6528;48.086;16.282;2022-07-29T05:01:15;19.80;99.90
12922;DHT22;6528;48.086;16.282;2022-07-29T05:03:42;19.80;99.90
12922;DHT22;6528;48.086;16.282;2022-07-29T05:06:09;19.90;99.90
12922;DHT22;6528;48.086;16.282;2022-07-29T05:08:36;20.00;99.90
12922;DHT22;6528;48.086;16.282;2022-07-29T05:11:03;20.10;1.00
12922;DHT22;6528;48.086;16.282;2022-07-29T05:13:39;20.10;1.00
12922;DHT22;6528;48.086;16.282;2022-07-29T05:16:12;20.20;99.90
12922;DHT22;6528;48.086;16.282;2022-07-29T05:18:39;20.30;71.80
12922;DHT22;6528;48.086;16.282;2022-07-29T05:21:06;20.40;60.20
12922;DHT22;6528;48.086;16.282;2022-07-29T05:23:33;20.50;79.40
12922;DHT22;6528;48.086;16.282;2022-07-29T05:26:00;20.60;91.60
12922;DHT22;6528;48.086;16.282;2022-07-29T05:28:27;20.80;89.30
12922;DHT22;6528;48.086;16.282;2022-07-29T05:30:54;20.90;99.90
12922;DHT22;6528;48.086;16.282;2022-07-29T05:33:20;21.10;99.90
12922;DHT22;6528;48.086;16.282;2022-07-29T05:36:05;21.30;99.90
12922;DHT22;6528;48.086;16.282;2022-07-29T05:38:34;21.40;99.90
12922;DHT22;6528;48.086;16.282;2022-07-29T05:41:02;21.60;99.90
12922;DHT22;6528;48.086;16.282;2022-07-29T05:43:30;21.60;99.90
12922;DHT22;6528;48.086;16.282;2022-07-29T05:45:57;21.80;98.30
12922;DHT22;6528;48.086;16.282;2022-07-29T05:48:24;21.90;83.30
12922;DHT22;6528;48.086;16.282;2022-07-29T05:50:51;22.10;99.90
12922;DHT22;6528;48.086;16.282;2022-07-29T05:53:18;22.30;99.90
12922;DHT22;6528;48.086;16.282;2022-07-29T05:55:47;22.50;99.90
12922;DHT22;6528;48.086;16.282;2022-07-29T05:58:14;22.70;99.90
12922;DHT22;6528;48.086;16.282;2022-07-29T06:00:41;22.80;99.90
12922;DHT22;6528;48.086;16.282;2022-07-29T06:03:08;22.90;99.90
12922;DHT22;6528;48.086;16.282;2022-07-29T06:05:35;23.00;99.90
12922;DHT22;6528;48.086;16.282;2022-07-29T06:08:02;23.10;99.90
12922;DHT22;6528;48.086;16.282;2022-07-29T06:10:29;23.10;99.90
12922;DHT22;6528;48.086;16.282;2022-07-29T06:12:55;23.10;99.90
12922;DHT22;6528;48.086;16.282;2022-07-29T06:15:22;23.10;99.90
12922;DHT22;6528;48.086;16.282;2022-07-29T06:17:49;23.10;99.90
12922;DHT22;6528;48.086;16.282;2022-07-29T06:20:27;23.20;99.90
12922;DHT22;6528;48.086;16.282;2022-07-29T06:22:57;23.10;99.90
12922;DHT22;6528;48.086;16.282;2022-07-29T06:25:23;23.20;99.90
12922;DHT22;6528;48.086;16.282;2022-07-29T06:27:50;23.20;99.90
12922;DHT22;6528;48.086;16.282;2022-07-29T06:30:17;23.30;99.90
12922;DHT22;6528;48.086;16.282;2022-07-29T06:32:44;23.30;99.90
12922;DHT22;6528;48.086;16.282;2022-07-29T06:35:10;23.40;99.90
12922;DHT22;6528;48.086;16.282;2022-07-29T06:37:57;23.40;99.90
12922;DHT22;6528;48.086;16.282;2022-07-29T06:40:25;23.50;99.90
12922;DHT22;6528;48.086;16.282;2022-07-29T06:43:10;23.60;99.90
12922;DHT22;6528;48.086;16.282;2022-07-29T06:45:37;23.70;99.90
12922;DHT22;6528;48.086;16.282;2022-07-29T06:48:08;23.70;99.90
12922;DHT22;6528;48.086;16.282;2022-07-29T06:50:35;23.80;99.90
12922;DHT22;6528;48.086;16.282;2022-07-29T06:53:02;23.80;1.00
12922;DHT22;6528;48.086;16.282;2022-07-29T06:55:29;23.90;1.00
12922;DHT22;6528;48.086;16.282;2022-07-29T06:57:56;23.90;1.00
12922;DHT22;6528;48.086;16.282;2022-07-29T07:00:23;23.90;1.00
12922;DHT22;6528;48.086;16.282;2022-07-29T07:02:50;23.90;1.00
12922;DHT22;6528;48.086;16.282;2022-07-29T07:05:16;23.90;1.00
12922;DHT22;6528;48.086;16.282;2022-07-29T07:07:43;23.90;99.90
12922;DHT22;6528;48.086;16.282;2022-07-29T07:10:10;24.00;99.90
12922;DHT22;6528;48.086;16.282;2022-07-29T07:15:04;24.60;1.00
12922;DHT22;6528;48.086;16.282;2022-07-29T07:22:26;25.00;1.00
12922;DHT22;6528;48.086;16.282;2022-07-29T07:27:20;28.80;1.00
12922;DHT22;6528;48.086;16.282;2022-07-29T07:29:47;28.90;1.00
12922;DHT22;6528;48.086;16.282;2022-07-29T07:44:32;30.30;1.00
12922;DHT22;6528;48.086;16.282;2022-07-29T07:47:12;34.40;1.00
12922;DHT22;6528;48.086;16.282;2022-07-29T07:49:40;34.90;1.00
12922;DHT22;6528;48.086;16.282;2022-07-29T07:52:10;35.20;1.00
12922;DHT22;6528;48.086;16.282;2022-07-29T07:57:05;36.10;1.00
12922;DHT22;6528;48.086;16.282;2022-07-29T07:59:31;36.30;1.00
12922;DHT22;6528;48.086;16.282;2022-07-29T08:01:58;36.50;1.00
12922;DHT22;6528;48.086;16.282;2022-07-29T08:04:27;36.40;1.00
12922;DHT22;6528;48.086;16.282;2022-07-29T08:06:55;36.60;1.00
12922;DHT22;6528;48.086;16.282;2022-07-29T08:09:24;36.80;1.00
12922;DHT22;6528;48.086;16.282;2022-07-29T08:11:57;37.10;1.00
12922;DHT22;6528;48.086;16.282;2022-07-29T08:14:24;37.40;1.00
12922;DHT22;6528;48.086;16.282;2022-07-29T08:16:51;37.40;1.00
12922;DHT22;6528;48.086;16.282;2022-07-29T08:19:18;37.80;1.00
12922;DHT22;6528;48.086;16.282;2022-07-29T08:21:45;38.00;1.00
12922;DHT22;6528;48.086;16.282;2022-07-29T08:24:11;38.20;1.00
12922;DHT22;6528;48.086;16.282;2022-07-29T08:26:57;38.40;1.00
12922;DHT22;6528;48.086;16.282;2022-07-29T08:29:23;38.80;1.00
12922;DHT22;6528;48.086;16.282;2022-07-29T08:31:50;39.00;1.00
12922;DHT22;6528;48.086;16.282;2022-07-29T08:34:18;39.10;1.00
12922;DHT22;6528;48.086;16.282;2022-07-29T08:36:52;39.40;1.00
12922;DHT22;6528;48.086;16.282;2022-07-29T08:39:19;39.60;1.00
12922;DHT22;6528;48.086;16.282;2022-07-29T08:41:46;39.70;1.00
12922;DHT22;6528;48.086;16.282;2022-07-29T08:44:23;39.60;1.00
12922;DHT22;6528;48.086;16.282;2022-07-29T08:46:56;39.00;1.00
12922;DHT22;6528;48.086;16.282;2022-07-29T08:49:23;38.30;1.00
12922;DHT22;6528;48.086;16.282;2022-07-29T08:51:51;37.90;1.00
12922;DHT22;6528;48.086;16.282;2022-07-29T08:54:21;37.60;1.00
12922;DHT22;6528;48.086;16.282;2022-07-29T08:56:50;37.40;1.00
12922;DHT22;6528;48.086;16.282;2022-07-29T08:59:22;37.30;1.00
12922;DHT22;6528;48.086;16.282;2022-07-29T09:01:52;36.90;1.00
12922;DHT22;6528;48.086;16.282;2022-07-29T09:04:21;36.20;1.00
12922;DHT22;6528;48.086;16.282;2022-07-29T09:09:19;34.70;1.00
12922;DHT22;6528;48.086;16.282;2022-07-29T09:11:45;34.10;1.00
12922;DHT22;6528;48.086;16.282;2022-07-29T09:24:36;33.60;1.00
12922;DHT22;6528;48.086;16.282;2022-07-29T09:27:20;31.70;1.00
12922;DHT22;6528;48.086;16.282;2022-07-29T10:00:13;31.40;1.00
12922;DHT22;6528;48.086;16.282;2022-07-29T10:02:42;38.20;1.00
12922;DHT22;6528;48.086;16.282;2022-07-29T10:05:18;38.60;1.00
12922;DHT22;6528;48.086;16.282;2022-07-29T10:07:55;39.00;1.00
12922;DHT22;6528;48.086;16.282;2022-07-29T10:10:30;39.20;1.00
12922;DHT22;6528;48.086;16.282;2022-07-29T10:13:01;39.50;1.00
12922;DHT22;6528;48.086;16.282;2022-07-29T10:15:37;39.40;1.00
12922;DHT22;6528;48.086;16.282;2022-07-29T10:18:11;39.00;1.00
12922;DHT22;6528;48.086;16.282;2022-07-29T10:20:39;38.20;1.00
12922;DHT22;6528;48.086;16.282;2022-07-29T10:23:06;37.60;1.00
12922;DHT22;6528;48.086;16.282;2022-07-29T10:25:33;37.20;1.00
12922;DHT22;6528;48.086;16.282;2022-07-29T10:28:00;37.20;1.00
12922;DHT22;6528;48.086;16.282;2022-07-29T10:30:27;36.70;1.00
12922;DHT22;6528;48.086;16.282;2022-07-29T10:33:29;35.90;1.00
12922;DHT22;6528;48.086;16.282;2022-07-29T10:44:21;32.80;1.00
12922;DHT22;6528;48.086;16.282;2022-07-29T10:46:50;32.30;1.00
12922;DHT22;6528;48.086;16.282;2022-07-29T10:59:45;31.40;1.00
12922;DHT22;6528;48.086;16.282;2022-07-29T11:07:40;31.00;1.00
12922;DHT22;6528;48.086;16.282;2022-07-29T11:10:27;31.00;1.00
12922;DHT22;6528;48.086;16.282;2022-07-29T11:12:57;30.80;1.00
12922;DHT22;6528;48.086;16.282;2022-07-29T11:15:24;30.80;1.00
12922;DHT22;6528;48.086;16.282;2022-07-29T11:20:40;30.70;1.00
12922;DHT22;6528;48.086;16.282;2022-07-29T11:23:21;30.70;1.00
12922;DHT22;6528;48.086;16.282;2022-07-29T11:31:40;30.70;1.00
12922;DHT22;6528;48.086;16.282;2022-07-29T11:34:30;30.80;1.00
12922;DHT22;6528;48.086;16.282;2022-07-29T11:39:45;30.90;1.00
12922;DHT22;6528;48.086;16.282;2022-07-29T11:45:14;31.10;1.00
12922;DHT22;6528;48.086;16.282;2022-07-29T11:48:03;31.10;1.00
12922;DHT22;6528;48.086;16.282;2022-07-29T11:50:51;31.20;1.00
12922;DHT22;6528;48.086;16.282;2022-07-29T11:53:19;31.20;1.00
12922;DHT22;6528;48.086;16.282;2022-07-29T11:55:47;31.10;1.00
12922;DHT22;6528;48.086;16.282;2022-07-29T11:58:21;31.00;1.00
12922;DHT22;6528;48.086;16.282;2022-07-29T12:00:50;31.20;1.00
12922;DHT22;6528;48.086;16.282;2022-07-29T12:03:25;31.40;1.00
12922;DHT22;6528;48.086;16.282;2022-07-29T12:06:03;31.60;7.90
12922;DHT22;6528;48.086;16.282;2022-07-29T12:08:40;31.70;12.70
12922;DHT22;6528;48.086;16.282;2022-07-29T12:11:18;31.60;30.80
12922;DHT22;6528;48.086;16.282;2022-07-29T12:13:48;31.30;52.80
12922;DHT22;6528;48.086;16.282;2022-07-29T12:16:15;31.00;1.00
12922;DHT22;6528;48.086;16.282;2022-07-29T12:19:02;30.80;1.00
12922;DHT22;6528;48.086;16.282;2022-07-29T12:21:46;30.50;99.90
12922;DHT22;6528;48.086;16.282;2022-07-29T12:24:25;30.30;1.00
12922;DHT22;6528;48.086;16.282;2022-07-29T12:26:57;30.20;1.00
12922;DHT22;6528;48.086;16.282;2022-07-29T12:29:25;30.20;1.00
12922;DHT22;6528;48.086;16.282;2022-07-29T12:32:01;30.10;1.00
12922;DHT22;6528;48.086;16.282;2022-07-29T12:34:28;30.20;1.00
12922;DHT22;6528;48.086;16.282;2022-07-29T12:36:56;30.30;1.00
12922;DHT22;6528;48.086;16.282;2022-07-29T12:39:22;30.40;1.00
12922;DHT22;6528;48.086;16.282;2022-07-29T12:41:53;30.50;1.00
12922;DHT22;6528;48.086;16.282;2022-07-29T12:44:47;30.40;1.00
12922;DHT22;6528;48.086;16.282;2022-07-29T12:47:15;30.40;1.00
12922;DHT22;6528;48.086;16.282;2022-07-29T12:49:43;30.30;1.00
12922;DHT22;6528;48.086;16.282;2022-07-29T12:52:31;30.10;1.00
12922;DHT22;6528;48.086;16.282;2022-07-29T12:54:58;30.10;1.00
12922;DHT22;6528;48.086;16.282;2022-07-29T12:57:25;30.00;1.00
12922;DHT22;6528;48.086;16.282;2022-07-29T13:00:07;30.00;1.00
12922;DHT22;6528;48.086;16.282;2022-07-29T13:02:35;29.90;1.00
12922;DHT22;6528;48.086;16.282;2022-07-29T13:05:05;30.00;1.00
12922;DHT22;6528;48.086;16.282;2022-07-29T13:07:33;30.00;1.00
12922;DHT22;6528;48.086;16.282;2022-07-29T13:10:21;30.00;1.00
12922;DHT22;6528;48.086;16.282;2022-07-29T13:13:10;29.90;1.00
12922;DHT22;6528;48.086;16.282;2022-07-29T13:15:39;29.80;1.00
12922;DHT22;6528;48.086;16.282;2022-07-29T13:18:27;29.60;1.00
12922;DHT22;6528;48.086;16.282;2022-07-29T13:20:54;29.30;1.00
12922;DHT22;6528;48.086;16.282;2022-07-29T13:23:21;28.60;99.90
12922;DHT22;6528;48.086;16.282;2022-07-29T13:25:48;28.80;1.00
12922;DHT22;6528;48.086;16.282;2022-07-29T13:28:15;28.60;1.00
12922;DHT22;6528;48.086;16.282;2022-07-29T13:30:43;28.40;67.70
12922;DHT22;6528;48.086;16.282;2022-07-29T13:33:10;28.30;99.90
12922;DHT22;6528;48.086;16.282;2022-07-29T13:35:37;28.10;1.00
12922;DHT22;6528;48.086;16.282;2022-07-29T13:38:05;27.80;1.00
12922;DHT22;6528;48.086;16.282;2022-07-29T13:43:01;27.50;13.80
12922;DHT22;6528;48.086;16.282;2022-07-29T13:45:29;27.30;1.00
12922;DHT22;6528;48.086;16.282;2022-07-29T13:47:56;27.20;1.00
12922;DHT22;6528;48.086;16.282;2022-07-29T13:50:23;27.00;1.00
12922;DHT22;6528;48.086;16.282;2022-07-29T13:57:44;26.50;99.90
12922;DHT22;6528;48.086;16.282;2022-07-29T14:17:23;25.00;49.80
